sensor_id;sensor_type;location;lat;lon;timestamp;P1;durP1;ratioP1;P2;durP2;ratioP2
37237;SDS011;23129;49.662;8.448;2023-05-10T00:00:36;1.08;;;1.08;;
37237;SDS011;23129;49.662;8.448;2023-05-10T00:03:04;4.72;;;1.63;;
37237;SDS011;23129;49.662;8.448;2023-05-10T00:05:34;1.45;;;1.33;;
37237;SDS011;23129;49.662;8.448;2023-05-10T00:08:03;3.00;;;1.58;;
37237;SDS011;23129;49.662;8.448;2023-05-10T00:10:31;2.92;;;1.67;;
37237;SDS011;23129;49.662;8.448;2023-05-10T00:13:00;2.90;;;1.80;;
37237;SDS011;23129;49.662;8.448;2023-05-10T00:15:29;3.47;;;1.73;;
37237;SDS011;23129;49.662;8.448;2023-05-10T00:17:57;1.35;;;1.25;;
37237;SDS011;23129;49.662;8.448;2023-05-10T00:20:26;1.55;;;1.45;;
37237;SDS011;23129;49.662;8.448;2023-05-10T00:22:56;2.58;;;1.85;;
37237;SDS011;23129;49.662;8.448;2023-05-10T00:25:24;2.58;;;1.38;;
37237;SDS011;23129;49.662;8.448;2023-05-10T00:27:52;1.88;;;1.77;;
37237;SDS011;23129;49.662;8.448;2023-05-10T00:30:21;1.73;;;1.60;;
37237;SDS011;23129;49.662;8.448;2023-05-10T00:32:50;3.50;;;1.65;;
37237;SDS011;23129;49.662;8.448;2023-05-10T00:35:18;1.70;;;1.60;;
37237;SDS011;23129;49.662;8.448;2023-05-10T00:37:47;2.72;;;2.05;;
37237;SDS011;23129;49.662;8.448;2023-05-10T00:40:17;1.88;;;1.77;;
37237;SDS011;23129;49.662;8.448;2023-05-10T00:42:51;2.72;;;1.70;;
37237;SDS011;23129;49.662;8.448;2023-05-10T00:45:20;6.53;;;1.92;;
37237;SDS011;23129;49.662;8.448;2023-05-10T00:47:48;3.05;;;2.80;;
37237;SDS011;23129;49.662;8.448;2023-05-10T00:50:18;2.13;;;1.85;;
37237;SDS011;23129;49.662;8.448;2023-05-10T00:52:47;2.90;;;2.47;;
37237;SDS011;23129;49.662;8.448;2023-05-10T00:55:18;2.85;;;2.05;;
37237;SDS011;23129;49.662;8.448;2023-05-10T00:57:46;2.45;;;2.25;;
37237;SDS011;23129;49.662;8.448;2023-05-10T01:00:15;2.75;;;2.55;;
37237;SDS011;23129;49.662;8.448;2023-05-10T01:02:44;2.67;;;2.47;;
37237;SDS011;23129;49.662;8.448;2023-05-10T01:05:14;3.45;;;2.25;;
37237;SDS011;23129;49.662;8.448;2023-05-10T01:07:42;4.72;;;2.40;;
37237;SDS011;23129;49.662;8.448;2023-05-10T01:10:11;2.10;;;2.00;;
37237;SDS011;23129;49.662;8.448;2023-05-10T01:12:42;7.60;;;2.58;;
37237;SDS011;23129;49.662;8.448;2023-05-10T01:15:14;2.33;;;2.22;;
37237;SDS011;23129;49.662;8.448;2023-05-10T01:17:44;2.45;;;2.33;;
37237;SDS011;23129;49.662;8.448;2023-05-10T01:20:14;2.92;;;2.35;;
37237;SDS011;23129;49.662;8.448;2023-05-10T01:23:07;3.60;;;2.47;;
37237;SDS011;23129;49.662;8.448;2023-05-10T01:26:04;2.25;;;2.05;;
37237;SDS011;23129;49.662;8.448;2023-05-10T01:32:25;3.08;;;2.15;;
37237;SDS011;23129;49.662;8.448;2023-05-10T01:35:00;3.83;;;2.30;;
37237;SDS011;23129;49.662;8.448;2023-05-10T01:37:36;2.60;;;2.37;;
37237;SDS011;23129;49.662;8.448;2023-05-10T01:40:14;2.58;;;2.38;;
37237;SDS011;23129;49.662;8.448;2023-05-10T01:42:51;2.92;;;2.70;;
37237;SDS011;23129;49.662;8.448;2023-05-10T01:45:28;3.28;;;2.63;;
37237;SDS011;23129;49.662;8.448;2023-05-10T01:48:05;4.55;;;3.00;;
37237;SDS011;23129;49.662;8.448;2023-05-10T01:50:37;2.75;;;2.55;;
37237;SDS011;23129;49.662;8.448;2023-05-10T01:53:11;5.40;;;2.40;;
37237;SDS011;23129;49.662;8.448;2023-05-10T01:55:43;9.60;;;2.58;;
37237;SDS011;23129;49.662;8.448;2023-05-10T01:58:19;3.85;;;2.55;;
37237;SDS011;23129;49.662;8.448;2023-05-10T02:00:52;2.50;;;2.30;;
37237;SDS011;23129;49.662;8.448;2023-05-10T02:03:24;4.00;;;2.15;;
37237;SDS011;23129;49.662;8.448;2023-05-10T02:05:56;2.47;;;2.08;;
37237;SDS011;23129;49.662;8.448;2023-05-10T02:08:26;2.58;;;2.17;;
37237;SDS011;23129;49.662;8.448;2023-05-10T02:10:56;3.80;;;2.38;;
37237;SDS011;23129;49.662;8.448;2023-05-10T02:13:26;2.60;;;2.40;;
37237;SDS011;23129;49.662;8.448;2023-05-10T02:15:57;3.60;;;2.28;;
37237;SDS011;23129;49.662;8.448;2023-05-10T02:18:28;3.05;;;2.28;;
37237;SDS011;23129;49.662;8.448;2023-05-10T02:20:58;4.40;;;2.72;;
37237;SDS011;23129;49.662;8.448;2023-05-10T02:23:28;2.72;;;2.25;;
37237;SDS011;23129;49.662;8.448;2023-05-10T02:25:57;2.88;;;2.67;;
37237;SDS011;23129;49.662;8.448;2023-05-10T02:28:28;1.90;;;1.80;;
37237;SDS011;23129;49.662;8.448;2023-05-10T02:30:58;4.07;;;2.30;;
37237;SDS011;23129;49.662;8.448;2023-05-10T02:33:28;2.65;;;2.22;;
37237;SDS011;23129;49.662;8.448;2023-05-10T02:35:59;10.20;;;2.70;;
37237;SDS011;23129;49.662;8.448;2023-05-10T02:38:28;3.45;;;2.45;;
37237;SDS011;23129;49.662;8.448;2023-05-10T02:40:59;2.13;;;2.00;;
37237;SDS011;23129;49.662;8.448;2023-05-10T02:43:31;2.15;;;1.95;;
37237;SDS011;23129;49.662;8.448;2023-05-10T02:46:01;5.40;;;3.65;;
37237;SDS011;23129;49.662;8.448;2023-05-10T02:48:31;2.60;;;2.40;;
37237;SDS011;23129;49.662;8.448;2023-05-10T02:51:00;2.50;;;2.20;;
37237;SDS011;23129;49.662;8.448;2023-05-10T02:56:08;2.88;;;2.58;;
37237;SDS011;23129;49.662;8.448;2023-05-10T02:58:41;2.67;;;2.47;;
37237;SDS011;23129;49.662;8.448;2023-05-10T03:01:10;3.50;;;2.95;;
37237;SDS011;23129;49.662;8.448;2023-05-10T03:03:40;4.65;;;2.65;;
37237;SDS011;23129;49.662;8.448;2023-05-10T03:06:09;5.90;;;3.58;;
37237;SDS011;23129;49.662;8.448;2023-05-10T03:08:37;8.32;;;2.80;;
37237;SDS011;23129;49.662;8.448;2023-05-10T03:11:16;4.50;;;3.10;;
37237;SDS011;23129;49.662;8.448;2023-05-10T03:14:07;7.03;;;3.17;;
37237;SDS011;23129;49.662;8.448;2023-05-10T03:16:52;10.77;;;3.35;;
37237;SDS011;23129;49.662;8.448;2023-05-10T03:19:39;6.20;;;3.58;;
37237;SDS011;23129;49.662;8.448;2023-05-10T03:22:17;3.83;;;3.53;;
37237;SDS011;23129;49.662;8.448;2023-05-10T03:24:53;4.38;;;3.97;;
37237;SDS011;23129;49.662;8.448;2023-05-10T03:27:26;4.18;;;3.67;;
37237;SDS011;23129;49.662;8.448;2023-05-10T03:29:58;4.35;;;3.85;;
37237;SDS011;23129;49.662;8.448;2023-05-10T03:32:28;3.53;;;3.22;;
37237;SDS011;23129;49.662;8.448;2023-05-10T03:35:00;8.35;;;4.13;;
37237;SDS011;23129;49.662;8.448;2023-05-10T03:37:28;4.65;;;4.25;;
37237;SDS011;23129;49.662;8.448;2023-05-10T03:39:57;7.57;;;4.47;;
37237;SDS011;23129;49.662;8.448;2023-05-10T03:42:26;5.15;;;4.30;;
37237;SDS011;23129;49.662;8.448;2023-05-10T03:44:54;6.43;;;4.07;;
37237;SDS011;23129;49.662;8.448;2023-05-10T03:47:23;8.13;;;3.90;;
37237;SDS011;23129;49.662;8.448;2023-05-10T03:49:52;3.67;;;3.42;;
37237;SDS011;23129;49.662;8.448;2023-05-10T03:52:22;4.07;;;3.65;;
37237;SDS011;23129;49.662;8.448;2023-05-10T03:54:51;5.28;;;3.65;;
37237;SDS011;23129;49.662;8.448;2023-05-10T03:57:20;5.85;;;3.85;;
37237;SDS011;23129;49.662;8.448;2023-05-10T03:59:48;4.85;;;3.47;;
37237;SDS011;23129;49.662;8.448;2023-05-10T04:02:17;4.25;;;3.10;;
37237;SDS011;23129;49.662;8.448;2023-05-10T04:04:45;3.90;;;3.30;;
37237;SDS011;23129;49.662;8.448;2023-05-10T04:07:14;5.30;;;3.13;;
37237;SDS011;23129;49.662;8.448;2023-05-10T04:09:44;3.33;;;3.03;;
37237;SDS011;23129;49.662;8.448;2023-05-10T04:12:12;4.47;;;3.75;;
37237;SDS011;23129;49.662;8.448;2023-05-10T04:14:40;4.55;;;3.08;;
37237;SDS011;23129;49.662;8.448;2023-05-10T04:17:09;7.65;;;3.60;;
37237;SDS011;23129;49.662;8.448;2023-05-10T04:19:38;4.05;;;3.70;;
37237;SDS011;23129;49.662;8.448;2023-05-10T04:22:06;4.82;;;4.20;;
37237;SDS011;23129;49.662;8.448;2023-05-10T04:24:35;4.70;;;3.05;;
37237;SDS011;23129;49.662;8.448;2023-05-10T04:27:05;7.93;;;3.58;;
37237;SDS011;23129;49.662;8.448;2023-05-10T04:29:33;7.63;;;3.45;;
37237;SDS011;23129;49.662;8.448;2023-05-10T04:32:02;7.38;;;3.63;;
37237;SDS011;23129;49.662;8.448;2023-05-10T04:34:30;8.45;;;4.63;;
37237;SDS011;23129;49.662;8.448;2023-05-10T04:37:00;6.05;;;3.47;;
37237;SDS011;23129;49.662;8.448;2023-05-10T04:39:28;10.82;;;4.00;;
37237;SDS011;23129;49.662;8.448;2023-05-10T04:41:57;6.07;;;3.90;;
37237;SDS011;23129;49.662;8.448;2023-05-10T04:44:27;5.80;;;4.40;;
37237;SDS011;23129;49.662;8.448;2023-05-10T04:46:55;11.02;;;4.95;;
37237;SDS011;23129;49.662;8.448;2023-05-10T04:49:24;8.85;;;4.18;;
37237;SDS011;23129;49.662;8.448;2023-05-10T04:51:52;8.30;;;4.85;;
37237;SDS011;23129;49.662;8.448;2023-05-10T04:54:21;9.55;;;4.82;;
37237;SDS011;23129;49.662;8.448;2023-05-10T04:56:49;8.82;;;6.28;;
37237;SDS011;23129;49.662;8.448;2023-05-10T04:59:18;13.35;;;5.68;;
37237;SDS011;23129;49.662;8.448;2023-05-10T05:01:48;11.27;;;6.07;;
37237;SDS011;23129;49.662;8.448;2023-05-10T05:04:16;13.40;;;6.55;;
37237;SDS011;23129;49.662;8.448;2023-05-10T05:06:45;10.77;;;6.35;;
37237;SDS011;23129;49.662;8.448;2023-05-10T05:09:14;11.73;;;6.53;;
37237;SDS011;23129;49.662;8.448;2023-05-10T05:11:42;11.55;;;7.10;;
37237;SDS011;23129;49.662;8.448;2023-05-10T05:14:11;10.85;;;6.40;;
37237;SDS011;23129;49.662;8.448;2023-05-10T05:16:39;19.15;;;7.05;;
37237;SDS011;23129;49.662;8.448;2023-05-10T05:19:09;15.55;;;7.40;;
37237;SDS011;23129;49.662;8.448;2023-05-10T05:21:37;10.80;;;6.57;;
37237;SDS011;23129;49.662;8.448;2023-05-10T05:24:07;12.52;;;7.78;;
37237;SDS011;23129;49.662;8.448;2023-05-10T05:26:36;25.85;;;7.65;;
37237;SDS011;23129;49.662;8.448;2023-05-10T05:29:05;19.00;;;8.10;;
37237;SDS011;23129;49.662;8.448;2023-05-10T05:31:34;11.35;;;7.78;;
37237;SDS011;23129;49.662;8.448;2023-05-10T05:34:03;15.93;;;7.38;;
37237;SDS011;23129;49.662;8.448;2023-05-10T05:36:35;14.55;;;7.90;;
37237;SDS011;23129;49.662;8.448;2023-05-10T05:39:04;16.08;;;7.38;;
37237;SDS011;23129;49.662;8.448;2023-05-10T05:41:33;14.73;;;7.10;;
37237;SDS011;23129;49.662;8.448;2023-05-10T05:44:01;16.25;;;7.60;;
37237;SDS011;23129;49.662;8.448;2023-05-10T05:46:30;12.23;;;8.30;;
37237;SDS011;23129;49.662;8.448;2023-05-10T05:48:58;14.40;;;8.30;;
37237;SDS011;23129;49.662;8.448;2023-05-10T05:51:27;9.88;;;7.47;;
37237;SDS011;23129;49.662;8.448;2023-05-10T05:53:57;14.98;;;8.90;;
37237;SDS011;23129;49.662;8.448;2023-05-10T05:56:26;13.63;;;8.93;;
37237;SDS011;23129;49.662;8.448;2023-05-10T05:58:54;12.60;;;8.75;;
37237;SDS011;23129;49.662;8.448;2023-05-10T06:01:22;18.50;;;8.75;;
37237;SDS011;23129;49.662;8.448;2023-05-10T06:03:51;12.82;;;7.78;;
37237;SDS011;23129;49.662;8.448;2023-05-10T06:06:19;15.75;;;8.13;;
37237;SDS011;23129;49.662;8.448;2023-05-10T06:08:48;15.23;;;7.85;;
37237;SDS011;23129;49.662;8.448;2023-05-10T06:11:18;22.00;;;10.02;;
37237;SDS011;23129;49.662;8.448;2023-05-10T06:13:46;12.60;;;8.50;;
37237;SDS011;23129;49.662;8.448;2023-05-10T06:16:15;16.67;;;9.68;;
37237;SDS011;23129;49.662;8.448;2023-05-10T06:18:44;16.65;;;8.57;;
37237;SDS011;23129;49.662;8.448;2023-05-10T06:21:12;11.55;;;7.35;;
37237;SDS011;23129;49.662;8.448;2023-05-10T06:23:41;10.55;;;7.70;;
37237;SDS011;23129;49.662;8.448;2023-05-10T06:26:10;17.10;;;8.07;;
37237;SDS011;23129;49.662;8.448;2023-05-10T06:28:41;14.25;;;7.53;;
37237;SDS011;23129;49.662;8.448;2023-05-10T06:31:09;12.52;;;8.02;;
37237;SDS011;23129;49.662;8.448;2023-05-10T06:33:38;10.07;;;8.07;;
37237;SDS011;23129;49.662;8.448;2023-05-10T06:36:07;14.38;;;8.20;;
37237;SDS011;23129;49.662;8.448;2023-05-10T06:38:36;13.13;;;7.82;;
37237;SDS011;23129;49.662;8.448;2023-05-10T06:41:04;17.48;;;8.18;;
37237;SDS011;23129;49.662;8.448;2023-05-10T06:43:33;10.25;;;6.82;;
37237;SDS011;23129;49.662;8.448;2023-05-10T06:46:04;15.40;;;7.97;;
37237;SDS011;23129;49.662;8.448;2023-05-10T06:48:33;9.50;;;6.00;;
37237;SDS011;23129;49.662;8.448;2023-05-10T06:51:02;8.63;;;5.88;;
37237;SDS011;23129;49.662;8.448;2023-05-10T06:53:31;6.25;;;5.47;;
37237;SDS011;23129;49.662;8.448;2023-05-10T06:55:59;7.05;;;4.95;;
37237;SDS011;23129;49.662;8.448;2023-05-10T06:58:29;6.28;;;5.45;;
37237;SDS011;23129;49.662;8.448;2023-05-10T07:01:02;6.30;;;4.95;;
37237;SDS011;23129;49.662;8.448;2023-05-10T07:03:32;7.93;;;6.18;;
37237;SDS011;23129;49.662;8.448;2023-05-10T07:06:01;6.63;;;5.57;;
37237;SDS011;23129;49.662;8.448;2023-05-10T07:08:30;6.45;;;4.93;;
37237;SDS011;23129;49.662;8.448;2023-05-10T07:11:00;6.18;;;5.25;;
37237;SDS011;23129;49.662;8.448;2023-05-10T07:13:29;5.03;;;4.60;;
37237;SDS011;23129;49.662;8.448;2023-05-10T07:15:58;14.40;;;5.13;;
37237;SDS011;23129;49.662;8.448;2023-05-10T07:18:30;7.80;;;3.95;;
37237;SDS011;23129;49.662;8.448;2023-05-10T07:20:58;5.57;;;4.28;;
37237;SDS011;23129;49.662;8.448;2023-05-10T07:23:27;13.98;;;4.63;;
37237;SDS011;23129;49.662;8.448;2023-05-10T07:25:57;5.28;;;4.50;;
37237;SDS011;23129;49.662;8.448;2023-05-10T07:28:25;4.82;;;3.97;;
37237;SDS011;23129;49.662;8.448;2023-05-10T07:30:54;4.18;;;3.88;;
37237;SDS011;23129;49.662;8.448;2023-05-10T07:33:22;6.50;;;4.78;;
37237;SDS011;23129;49.662;8.448;2023-05-10T07:35:52;5.57;;;4.50;;
37237;SDS011;23129;49.662;8.448;2023-05-10T07:38:21;6.28;;;4.65;;
37237;SDS011;23129;49.662;8.448;2023-05-10T07:40:49;12.40;;;4.70;;
37237;SDS011;23129;49.662;8.448;2023-05-10T07:43:18;6.22;;;5.22;;
37237;SDS011;23129;49.662;8.448;2023-05-10T07:45:46;8.40;;;4.80;;
37237;SDS011;23129;49.662;8.448;2023-05-10T07:48:14;6.45;;;3.95;;
37237;SDS011;23129;49.662;8.448;2023-05-10T07:50:43;5.63;;;3.95;;
37237;SDS011;23129;49.662;8.448;2023-05-10T07:53:13;6.22;;;3.88;;
37237;SDS011;23129;49.662;8.448;2023-05-10T07:55:41;4.07;;;2.28;;
37237;SDS011;23129;49.662;8.448;2023-05-10T07:58:10;1.38;;;1.27;;
37237;SDS011;23129;49.662;8.448;2023-05-10T08:00:38;1.77;;;1.08;;
37237;SDS011;23129;49.662;8.448;2023-05-10T08:03:07;2.05;;;1.27;;
37237;SDS011;23129;49.662;8.448;2023-05-10T08:05:36;1.00;;;1.00;;
37237;SDS011;23129;49.662;8.448;2023-05-10T08:08:04;2.15;;;0.80;;
37237;SDS011;23129;49.662;8.448;2023-05-10T08:10:34;1.27;;;0.95;;
37237;SDS011;23129;49.662;8.448;2023-05-10T08:13:02;3.40;;;0.80;;
37237;SDS011;23129;49.662;8.448;2023-05-10T08:15:31;2.20;;;1.00;;
37237;SDS011;23129;49.662;8.448;2023-05-10T08:17:59;0.80;;;0.80;;
37237;SDS011;23129;49.662;8.448;2023-05-10T08:20:27;1.48;;;1.10;;
37237;SDS011;23129;49.662;8.448;2023-05-10T08:22:56;2.88;;;1.00;;
37237;SDS011;23129;49.662;8.448;2023-05-10T08:25:24;2.78;;;1.00;;
37237;SDS011;23129;49.662;8.448;2023-05-10T08:27:54;0.70;;;0.60;;
37237;SDS011;23129;49.662;8.448;2023-05-10T08:30:22;0.50;;;0.50;;
37237;SDS011;23129;49.662;8.448;2023-05-10T08:32:51;0.35;;;0.30;;
37237;SDS011;23129;49.662;8.448;2023-05-10T08:35:19;0.45;;;0.45;;
37237;SDS011;23129;49.662;8.448;2023-05-10T08:37:48;0.95;;;0.50;;
37237;SDS011;23129;49.662;8.448;2023-05-10T08:40:16;4.72;;;0.65;;
37237;SDS011;23129;49.662;8.448;2023-05-10T08:42:50;1.23;;;0.68;;
37237;SDS011;23129;49.662;8.448;2023-05-10T08:45:26;1.45;;;0.60;;
37237;SDS011;23129;49.662;8.448;2023-05-10T08:47:59;0.57;;;0.57;;
37237;SDS011;23129;49.662;8.448;2023-05-10T08:50:29;2.50;;;0.52;;
37237;SDS011;23129;49.662;8.448;2023-05-10T08:52:59;0.68;;;0.68;;
37237;SDS011;23129;49.662;8.448;2023-05-10T08:55:31;2.80;;;0.50;;
37237;SDS011;23129;49.662;8.448;2023-05-10T08:58:01;0.52;;;0.30;;
37237;SDS011;23129;49.662;8.448;2023-05-10T09:00:30;0.70;;;0.57;;
37237;SDS011;23129;49.662;8.448;2023-05-10T09:02:59;1.85;;;0.30;;
37237;SDS011;23129;49.662;8.448;2023-05-10T09:05:29;0.40;;;0.40;;
37237;SDS011;23129;49.662;8.448;2023-05-10T09:07:57;0.30;;;0.30;;
37237;SDS011;23129;49.662;8.448;2023-05-10T09:10:26;0.60;;;0.43;;
37237;SDS011;23129;49.662;8.448;2023-05-10T09:12:57;1.85;;;0.93;;
37237;SDS011;23129;49.662;8.448;2023-05-10T09:15:27;1.55;;;0.43;;
37237;SDS011;23129;49.662;8.448;2023-05-10T09:17:55;4.60;;;0.50;;
37237;SDS011;23129;49.662;8.448;2023-05-10T09:20:25;0.40;;;0.40;;
37237;SDS011;23129;49.662;8.448;2023-05-10T09:22:54;2.83;;;0.60;;
37237;SDS011;23129;49.662;8.448;2023-05-10T09:25:22;1.63;;;0.40;;
37237;SDS011;23129;49.662;8.448;2023-05-10T09:27:52;6.60;;;1.17;;
37237;SDS011;23129;49.662;8.448;2023-05-10T09:30:23;7.95;;;0.75;;
37237;SDS011;23129;49.662;8.448;2023-05-10T09:32:54;0.60;;;0.60;;
37237;SDS011;23129;49.662;8.448;2023-05-10T09:35:25;2.28;;;0.80;;
37237;SDS011;23129;49.662;8.448;2023-05-10T09:37:56;0.80;;;0.40;;
37237;SDS011;23129;49.662;8.448;2023-05-10T09:40:28;4.53;;;0.60;;
37237;SDS011;23129;49.662;8.448;2023-05-10T09:42:57;0.60;;;0.60;;
37237;SDS011;23129;49.662;8.448;2023-05-10T09:45:29;0.98;;;0.63;;
37237;SDS011;23129;49.662;8.448;2023-05-10T09:48:03;6.45;;;0.82;;
37237;SDS011;23129;49.662;8.448;2023-05-10T09:50:33;0.73;;;0.73;;
37237;SDS011;23129;49.662;8.448;2023-05-10T09:53:02;0.80;;;0.80;;
37237;SDS011;23129;49.662;8.448;2023-05-10T09:55:38;3.30;;;0.82;;
37237;SDS011;23129;49.662;8.448;2023-05-10T09:58:10;0.50;;;0.50;;
37237;SDS011;23129;49.662;8.448;2023-05-10T10:00:41;0.70;;;0.70;;
37237;SDS011;23129;49.662;8.448;2023-05-10T10:03:14;1.38;;;0.68;;
37237;SDS011;23129;49.662;8.448;2023-05-10T10:05:44;1.45;;;1.17;;
37237;SDS011;23129;49.662;8.448;2023-05-10T10:08:15;0.70;;;0.70;;
37237;SDS011;23129;49.662;8.448;2023-05-10T10:10:45;1.67;;;1.52;;
37237;SDS011;23129;49.662;8.448;2023-05-10T10:13:15;1.20;;;0.90;;
37237;SDS011;23129;49.662;8.448;2023-05-10T10:15:45;1.05;;;0.80;;
37237;SDS011;23129;49.662;8.448;2023-05-10T10:18:17;1.85;;;1.05;;
37237;SDS011;23129;49.662;8.448;2023-05-10T10:20:50;2.10;;;0.90;;
37237;SDS011;23129;49.662;8.448;2023-05-10T10:23:19;1.90;;;0.70;;
37237;SDS011;23129;49.662;8.448;2023-05-10T10:25:48;3.75;;;0.70;;
37237;SDS011;23129;49.662;8.448;2023-05-10T10:28:21;5.88;;;2.78;;
37237;SDS011;23129;49.662;8.448;2023-05-10T10:31:11;0.40;;;0.40;;
37237;SDS011;23129;49.662;8.448;2023-05-10T10:33:55;0.55;;;0.55;;
37237;SDS011;23129;49.662;8.448;2023-05-10T10:36:29;1.08;;;0.68;;
37237;SDS011;23129;49.662;8.448;2023-05-10T10:39:00;0.47;;;0.40;;
37237;SDS011;23129;49.662;8.448;2023-05-10T10:41:31;1.70;;;0.40;;
37237;SDS011;23129;49.662;8.448;2023-05-10T10:47:08;0.55;;;0.55;;
37237;SDS011;23129;49.662;8.448;2023-05-10T10:50:04;6.22;;;0.30;;
37237;SDS011;23129;49.662;8.448;2023-05-10T10:52:35;0.20;;;0.20;;
37237;SDS011;23129;49.662;8.448;2023-05-10T10:55:05;0.20;;;0.20;;
37237;SDS011;23129;49.662;8.448;2023-05-10T10:57:46;0.40;;;0.40;;
37237;SDS011;23129;49.662;8.448;2023-05-10T11:00:18;0.30;;;0.30;;
37237;SDS011;23129;49.662;8.448;2023-05-10T11:02:59;0.20;;;0.20;;
37237;SDS011;23129;49.662;8.448;2023-05-10T11:05:33;1.48;;;0.50;;
37237;SDS011;23129;49.662;8.448;2023-05-10T11:08:11;0.50;;;0.50;;
37237;SDS011;23129;49.662;8.448;2023-05-10T11:10:49;1.23;;;0.50;;
37237;SDS011;23129;49.662;8.448;2023-05-10T11:13:30;1.73;;;0.40;;
37237;SDS011;23129;49.662;8.448;2023-05-10T11:16:14;0.30;;;0.30;;
37237;SDS011;23129;49.662;8.448;2023-05-10T11:18:56;0.77;;;0.60;;
37237;SDS011;23129;49.662;8.448;2023-05-10T11:21:28;2.85;;;1.38;;
37237;SDS011;23129;49.662;8.448;2023-05-10T11:23:58;0.88;;;0.60;;
37237;SDS011;23129;49.662;8.448;2023-05-10T11:26:32;0.60;;;0.50;;
37237;SDS011;23129;49.662;8.448;2023-05-10T11:29:02;2.83;;;0.40;;
37237;SDS011;23129;49.662;8.448;2023-05-10T11:31:31;1.40;;;0.50;;
37237;SDS011;23129;49.662;8.448;2023-05-10T11:34:01;0.90;;;0.28;;
37237;SDS011;23129;49.662;8.448;2023-05-10T11:36:33;1.00;;;0.38;;
37237;SDS011;23129;49.662;8.448;2023-05-10T11:39:02;1.20;;;0.30;;
37237;SDS011;23129;49.662;8.448;2023-05-10T11:41:32;19.67;;;1.50;;
37237;SDS011;23129;49.662;8.448;2023-05-10T11:44:01;0.60;;;0.40;;
37237;SDS011;23129;49.662;8.448;2023-05-10T11:46:29;2.40;;;0.50;;
37237;SDS011;23129;49.662;8.448;2023-05-10T11:48:59;0.45;;;0.35;;
37237;SDS011;23129;49.662;8.448;2023-05-10T11:51:32;1.95;;;0.50;;
37237;SDS011;23129;49.662;8.448;2023-05-10T11:54:05;0.50;;;0.40;;
37237;SDS011;23129;49.662;8.448;2023-05-10T11:56:36;2.55;;;0.40;;
37237;SDS011;23129;49.662;8.448;2023-05-10T11:59:05;4.53;;;0.43;;
37237;SDS011;23129;49.662;8.448;2023-05-10T12:01:34;0.52;;;0.40;;
37237;SDS011;23129;49.662;8.448;2023-05-10T12:04:04;3.70;;;0.40;;
37237;SDS011;23129;49.662;8.448;2023-05-10T12:06:35;1.95;;;0.60;;
37237;SDS011;23129;49.662;8.448;2023-05-10T12:09:08;3.00;;;0.52;;
37237;SDS011;23129;49.662;8.448;2023-05-10T12:11:37;4.47;;;0.73;;
37237;SDS011;23129;49.662;8.448;2023-05-10T12:14:10;1.95;;;0.70;;
37237;SDS011;23129;49.662;8.448;2023-05-10T12:16:38;5.45;;;0.70;;
37237;SDS011;23129;49.662;8.448;2023-05-10T12:19:09;0.30;;;0.30;;
37237;SDS011;23129;49.662;8.448;2023-05-10T12:21:37;4.78;;;0.82;;
37237;SDS011;23129;49.662;8.448;2023-05-10T12:24:07;1.00;;;0.65;;
37237;SDS011;23129;49.662;8.448;2023-05-10T12:26:36;3.53;;;0.90;;
37237;SDS011;23129;49.662;8.448;2023-05-10T12:29:14;1.10;;;0.60;;
37237;SDS011;23129;49.662;8.448;2023-05-10T12:31:53;2.03;;;0.55;;
37237;SDS011;23129;49.662;8.448;2023-05-10T12:34:29;1.42;;;0.50;;
37237;SDS011;23129;49.662;8.448;2023-05-10T12:36:59;4.72;;;0.68;;
37237;SDS011;23129;49.662;8.448;2023-05-10T12:39:38;4.75;;;0.70;;
37237;SDS011;23129;49.662;8.448;2023-05-10T12:42:07;3.47;;;0.68;;
37237;SDS011;23129;49.662;8.448;2023-05-10T12:44:38;5.45;;;0.70;;
37237;SDS011;23129;49.662;8.448;2023-05-10T12:47:07;0.73;;;0.57;;
37237;SDS011;23129;49.662;8.448;2023-05-10T12:49:36;5.88;;;0.52;;
37237;SDS011;23129;49.662;8.448;2023-05-10T12:52:05;1.23;;;0.50;;
37237;SDS011;23129;49.662;8.448;2023-05-10T12:54:34;5.32;;;0.60;;
37237;SDS011;23129;49.662;8.448;2023-05-10T12:57:02;4.55;;;0.80;;
37237;SDS011;23129;49.662;8.448;2023-05-10T12:59:31;4.00;;;0.70;;
37237;SDS011;23129;49.662;8.448;2023-05-10T13:02:02;4.55;;;0.80;;
37237;SDS011;23129;49.662;8.448;2023-05-10T13:04:30;4.90;;;0.40;;
37237;SDS011;23129;49.662;8.448;2023-05-10T13:07:00;0.85;;;0.40;;
37237;SDS011;23129;49.662;8.448;2023-05-10T13:09:29;2.00;;;0.50;;
37237;SDS011;23129;49.662;8.448;2023-05-10T13:11:58;1.95;;;0.40;;
37237;SDS011;23129;49.662;8.448;2023-05-10T13:14:26;4.90;;;0.43;;
37237;SDS011;23129;49.662;8.448;2023-05-10T13:16:55;2.00;;;0.50;;
37237;SDS011;23129;49.662;8.448;2023-05-10T13:19:24;0.82;;;0.52;;
37237;SDS011;23129;49.662;8.448;2023-05-10T13:21:53;4.18;;;0.77;;
37237;SDS011;23129;49.662;8.448;2023-05-10T13:24:23;1.85;;;0.60;;
37237;SDS011;23129;49.662;8.448;2023-05-10T13:26:51;0.95;;;0.50;;
37237;SDS011;23129;49.662;8.448;2023-05-10T13:29:20;3.13;;;1.05;;
37237;SDS011;23129;49.662;8.448;2023-05-10T13:31:48;0.70;;;0.47;;
37237;SDS011;23129;49.662;8.448;2023-05-10T13:34:17;3.30;;;0.60;;
37237;SDS011;23129;49.662;8.448;2023-05-10T13:36:47;1.98;;;0.50;;
37237;SDS011;23129;49.662;8.448;2023-05-10T13:39:16;3.13;;;0.60;;
37237;SDS011;23129;49.662;8.448;2023-05-10T13:41:48;1.80;;;0.75;;
37237;SDS011;23129;49.662;8.448;2023-05-10T13:44:17;0.52;;;0.47;;
37237;SDS011;23129;49.662;8.448;2023-05-10T13:46:47;0.82;;;0.52;;
37237;SDS011;23129;49.662;8.448;2023-05-10T13:49:16;1.67;;;0.70;;
37237;SDS011;23129;49.662;8.448;2023-05-10T13:51:44;8.15;;;0.70;;
37237;SDS011;23129;49.662;8.448;2023-05-10T13:54:13;4.78;;;0.70;;
37237;SDS011;23129;49.662;8.448;2023-05-10T13:56:43;1.55;;;0.50;;
37237;SDS011;23129;49.662;8.448;2023-05-10T13:59:14;3.53;;;0.88;;
37237;SDS011;23129;49.662;8.448;2023-05-10T14:01:43;1.17;;;0.60;;
37237;SDS011;23129;49.662;8.448;2023-05-10T14:04:11;1.23;;;0.50;;
37237;SDS011;23129;49.662;8.448;2023-05-10T14:06:40;8.10;;;1.02;;
37237;SDS011;23129;49.662;8.448;2023-05-10T14:09:08;0.93;;;0.35;;
37237;SDS011;23129;49.662;8.448;2023-05-10T14:11:37;1.98;;;0.55;;
37237;SDS011;23129;49.662;8.448;2023-05-10T14:14:07;2.85;;;0.30;;
37237;SDS011;23129;49.662;8.448;2023-05-10T14:16:37;0.95;;;0.50;;
37237;SDS011;23129;49.662;8.448;2023-05-10T14:19:08;0.45;;;0.40;;
37237;SDS011;23129;49.662;8.448;2023-05-10T14:21:37;5.35;;;0.50;;
37237;SDS011;23129;49.662;8.448;2023-05-10T14:24:06;1.17;;;0.45;;
37237;SDS011;23129;49.662;8.448;2023-05-10T14:26:34;1.52;;;0.40;;
37237;SDS011;23129;49.662;8.448;2023-05-10T14:29:03;2.65;;;0.60;;
37237;SDS011;23129;49.662;8.448;2023-05-10T14:31:31;4.70;;;0.40;;
37237;SDS011;23129;49.662;8.448;2023-05-10T14:34:01;0.50;;;0.40;;
37237;SDS011;23129;49.662;8.448;2023-05-10T14:36:29;1.73;;;0.68;;
37237;SDS011;23129;49.662;8.448;2023-05-10T14:38:58;0.88;;;0.52;;
37237;SDS011;23129;49.662;8.448;2023-05-10T14:41:26;3.13;;;0.30;;
37237;SDS011;23129;49.662;8.448;2023-05-10T14:43:56;2.63;;;0.43;;
37237;SDS011;23129;49.662;8.448;2023-05-10T14:46:25;0.65;;;0.40;;
37237;SDS011;23129;49.662;8.448;2023-05-10T14:48:53;15.98;;;0.60;;
37237;SDS011;23129;49.662;8.448;2023-05-10T14:51:23;7.80;;;0.25;;
37237;SDS011;23129;49.662;8.448;2023-05-10T14:53:52;3.63;;;0.35;;
37237;SDS011;23129;49.662;8.448;2023-05-10T14:56:20;2.63;;;0.40;;
37237;SDS011;23129;49.662;8.448;2023-05-10T14:58:49;10.27;;;0.63;;
37237;SDS011;23129;49.662;8.448;2023-05-10T15:01:18;1.42;;;0.35;;
37237;SDS011;23129;49.662;8.448;2023-05-10T15:03:47;2.58;;;0.30;;
37237;SDS011;23129;49.662;8.448;2023-05-10T15:06:16;0.68;;;0.50;;
37237;SDS011;23129;49.662;8.448;2023-05-10T15:08:51;0.75;;;0.52;;
37237;SDS011;23129;49.662;8.448;2023-05-10T15:11:19;3.13;;;0.35;;
37237;SDS011;23129;49.662;8.448;2023-05-10T15:13:47;8.20;;;0.63;;